Wetterdaten: aktuell Montag, 06.07.2020 14:45
Datum Zeit Temp. A. Luft Gew. Boden Gew. Boden A. Feuchte A. Luftdruck Regen Wind Richtung Richtung Sonnenschein ET UV Solar Taupunkt Windchill Windben Empfang
06.07.2020 14:45 21.9 C 27.8 C 21.1 C 20.0 C 41 % 1016.0 hPa 0.0 l/m 16.3 km/h (3 Bft) W-NW 303 60 min 0.635 mm 6.8 UV-I 868 W/m 8.0 C 19.3 C 30.6 km/h (5 Bft) 100.00 %
06.07.2020 13:45 22.1 C 26.1 C 21.1 C 20.0 C 39 % 1016.0 hPa 0.0 l/m 14.7 km/h (3 Bft) W-NW 291 60 min 0.533 mm 7.7 UV-I 897 W/m 7.5 C 19.9 C 29.0 km/h (5 Bft) 95.93 %
06.07.2020 12:45 21.1 C 23.9 C 21.1 C 20.0 C 44 % 1015.8 hPa 0.0 l/m 14.1 km/h (3 Bft) W-NW 282 60 min 0.254 mm 8.1 UV-I 837 W/m 8.4 C 18.8 C 25.7 km/h (4 Bft) 100.00 %
06.07.2020 11:45 18.0 C 20.0 C 21.1 C 20.0 C 60 % 1015.9 hPa 0.0 l/m 8.9 km/h (2 Bft) W-NW 290 60 min 0.127 mm 3.5 UV-I 377 W/m 10.1 C 16.9 C 19.3 km/h (3 Bft) 100.00 %
06.07.2020 10:45 16.9 C 19.4 C 21.1 C 20.0 C 73 % 1015.5 hPa 0.0 l/m 10.2 km/h (2 Bft) W-NW 284 55 min 0.102 mm 1.7 UV-I 201 W/m 12.0 C 15.1 C 20.9 km/h (4 Bft) 97.44 %
06.07.2020 09:45 17.1 C 18.9 C 21.1 C 20.0 C 86 % 1015.1 hPa 0.2 l/m 13.2 km/h (3 Bft) W 270 25 min 0.050 mm 1.1 UV-I 133 W/m 14.7 C 14.3 C 22.5 km/h (4 Bft) 97.44 %
06.07.2020 08:45 17.3 C 17.8 C 21.1 C 20.0 C 92 % 1014.8 hPa 0.4 l/m 1.3 km/h (1 Bft) N-NW 329 0 min 0.051 mm 0.1 UV-I 63 W/m 16.0 C 17.3 C 8.0 km/h (2 Bft) 95.73 %
06.07.2020 07:45 18.2 C 17.8 C 21.1 C 20.0 C 87 % 1014.0 hPa 0.0 l/m 11.3 km/h (2 Bft) W 267 10 min 0.051 mm 0.0 UV-I 17 W/m 16.0 C 16.2 C 20.9 km/h (4 Bft) 98.17 %
06.07.2020 06:45 17.6 C 16.1 C 21.1 C 20.0 C 88 % 1013.4 hPa 0.0 l/m 6.7 km/h (2 Bft) SW 223 0 min 0.000 mm 0.0 UV-I 100 W/m 15.6 C 17.5 C 12.9 km/h (3 Bft) 99.15 %
06.07.2020 05:45 15.8 C 16.1 C 21.1 C 20.0 C 90 % 1013.3 hPa 0.0 l/m 1.1 km/h (1 Bft) SW 231 0 min 0.025 mm 0.0 UV-I 12 W/m 14.2 C 15.8 C 6.4 km/h (2 Bft) 99.15 %
06.07.2020 04:45 17.1 C 16.7 C 21.1 C 20.0 C 86 % 1013.6 hPa 0.0 l/m 0.3 km/h (0 Bft) SW 231 0 min 0.026 mm 0.0 UV-I 0 W/m 14.7 C 17.1 C 1.6 km/h (1 Bft) 100.00 %
06.07.2020 03:45 17.8 C 17.2 C 21.1 C 20.0 C 84 % 1014.0 hPa 0.0 l/m 6.1 km/h (2 Bft) SW 225 0 min 0.025 mm 0.0 UV-I 0 W/m 15.1 C 17.8 C 9.7 km/h (2 Bft) 100.00 %
06.07.2020 02:45 18.6 C 17.8 C 21.1 C 20.0 C 82 % 1014.6 hPa 0.0 l/m 4.2 km/h (1 Bft) SW 219 0 min 0.026 mm 0.0 UV-I 0 W/m 15.5 C 18.6 C 6.4 km/h (2 Bft) 100.00 %
06.07.2020 01:45 18.3 C 18.3 C 21.1 C 20.0 C 82 % 1014.7 hPa 0.0 l/m 4.2 km/h (1 Bft) W-SW 248 0 min 0.025 mm 0.0 UV-I 0 W/m 15.2 C 18.3 C 9.7 km/h (2 Bft) 99.15 %
06.07.2020 00:45 19.7 C 18.9 C 21.1 C 20.0 C 76 % 1014.9 hPa 0.0 l/m 4.5 km/h (1 Bft) W-NW 284 0 min 0.000 mm 0.0 UV-I 0 W/m 15.3 C 19.7 C 12.9 km/h (3 Bft) 97.44 %
05.07.2020 23:45 20.4 C 20.0 C 21.1 C 20.0 C 76 % 1014.7 hPa 0.0 l/m 3.7 km/h (1 Bft) SW 233 0 min 0.025 mm 0.0 UV-I 0 W/m 16.0 C 20.4 C 8.0 km/h (2 Bft) 97.44 %
05.07.2020 22:45 21.4 C 21.7 C 21.1 C 20.0 C 75 % 1014.9 hPa 0.0 l/m 4.6 km/h (1 Bft) SW 222 0 min 0.000 mm 0.0 UV-I 0 W/m 16.8 C 21.4 C 8.0 km/h (2 Bft) 99.15 %
05.07.2020 21:45 22.4 C 24.4 C 21.1 C 20.0 C 77 % 1014.7 hPa 0.0 l/m 0.0 km/h (0 Bft) W 259 0 min 0.051 mm 0.0 UV-I 0 W/m 18.2 C 22.4 C 0.0 km/h (0 Bft) 100.00 %
05.07.2020 20:45 24.7 C 28.3 C 21.1 C 20.0 C 66 % 1014.4 hPa 0.0 l/m 1.8 km/h (1 Bft) W 259 15 min 0.203 mm 0.0 UV-I 26 W/m 17.9 C 24.7 C 6.4 km/h (2 Bft) 98.29 %
05.07.2020 19:45 26.8 C 34.4 C 21.1 C 20.0 C 61 % 1014.6 hPa 0.0 l/m 5.7 km/h (1 Bft) W 261 60 min 0.305 mm 0.5 UV-I 233 W/m 18.6 C 26.8 C 12.9 km/h (3 Bft) 96.03 %
05.07.2020 18:45 27.4 C 34.4 C 21.1 C 20.0 C 58 % 1014.9 hPa 0.0 l/m 8.5 km/h (2 Bft) NW 306 60 min 0.356 mm 1.3 UV-I 362 W/m 18.4 C 27.0 C 17.7 km/h (3 Bft) 94.87 %
05.07.2020 17:45 28.4 C 31.7 C 21.1 C 20.0 C 56 % 1015.1 hPa 0.0 l/m 8.1 km/h (2 Bft) W-NW 286 60 min 0.406 mm 2.6 UV-I 595 W/m 18.8 C 28.2 C 14.5 km/h (3 Bft) 94.02 %
05.07.2020 16:45 28.7 C 30.0 C 21.1 C 20.0 C 54 % 1015.7 hPa 0.0 l/m 10.8 km/h (2 Bft) W-SW 237 60 min 0.330 mm 4.3 UV-I 752 W/m 18.5 C 28.2 C 22.5 km/h (4 Bft) 98.31 %
05.07.2020 15:45 26.6 C 30.6 C 21.1 C 20.0 C 60 % 1016.1 hPa 0.0 l/m 7.9 km/h (2 Bft) W 261 45 min 0.432 mm 2.6 UV-I 220 W/m 18.2 C 26.3 C 19.3 km/h (3 Bft) 97.46 %
05.07.2020 15:00 27.5 C 30.0 C 21.1 C 20.0 C 56 % 1016.5 hPa 0.0 l/m 12.3 km/h (3 Bft) SW 234 0 min 0.000 mm 5.3 UV-I 596 W/m 17.9 C 26.6 C 20.9 km/h (4 Bft) 99.15 %
_ Min-Zeit 06:00 05:50 15:00 15:00 13:45 06:15 - 21:15 - - - - - - 13:45 09:55 21:15 00:05
Minimum _ 15.7 C 15.6 C 21.1 C 20.0 C 39 % 1013.2 hPa - 0.0 km/h (0 Bft) - - - - - - 7.5 C 14.0 C 0.0 km/h (0 Bft) 62.07 %
_ Max-Zeit 16:45 19:00 15:00 15:00 08:40 15:00 08:10 14:20 - - 15:00 14:05 15:10 15:10 17:35 16:45 13:50 15:10
Maximum _ 28.7 C 35.0 C 21.1 C 20.0 C 93 % 1016.5 hPa 0.2 l/m 18.4 km/h
W-SW (3 Bft)
- - 5 min 0.635 mm 8.1 UV-I 1049 W/m 20.2 C 28.2 C 35.4 km/h
W-NW (5 Bft)
100.00 %
Durchschnitt _ 21.5 C 23.4 C 21.1 C 20.0 C 70 % 1015.0 hPa #0.6 l/m 6.8 km/h (2 Bft) SW - #5:30 h #1.930 mm 4.2 UV-I 348 W/m 15.4 C 20.9 C 13.7 km/h (3 Bft) 98.18 %